sensor_id;sensor_type;location;lat;lon;timestamp;temperature;humidity
23683;DHT22;24897;53.514;10.482;2022-11-15T00:02:06;6.90;99.90
23683;DHT22;24897;53.514;10.482;2022-11-15T00:04:50;6.90;99.90
23683;DHT22;24897;53.514;10.482;2022-11-15T00:07:34;5.80;99.90
23683;DHT22;24897;53.514;10.482;2022-11-15T00:10:18;6.90;99.90
23683;DHT22;24897;53.514;10.482;2022-11-15T00:13:11;6.80;99.90
23683;DHT22;24897;53.514;10.482;2022-11-15T00:16:00;6.40;99.90
23683;DHT22;24897;53.514;10.482;2022-11-15T00:18:44;6.60;99.90
23683;DHT22;24897;53.514;10.482;2022-11-15T00:21:28;5.80;99.90
23683;DHT22;24897;53.514;10.482;2022-11-15T00:24:12;6.20;99.90
23683;DHT22;24897;53.514;10.482;2022-11-15T00:26:57;7.00;99.90
23683;DHT22;24897;53.514;10.482;2022-11-15T00:29:41;6.80;99.90
23683;DHT22;24897;53.514;10.482;2022-11-15T00:32:31;6.50;99.90
23683;DHT22;24897;53.514;10.482;2022-11-15T00:38:01;6.40;99.90
23683;DHT22;24897;53.514;10.482;2022-11-15T00:40:46;6.50;99.90
23683;DHT22;24897;53.514;10.482;2022-11-15T00:43:30;6.70;99.90
23683;DHT22;24897;53.514;10.482;2022-11-15T00:46:14;6.20;99.90
23683;DHT22;24897;53.514;10.482;2022-11-15T00:48:58;6.60;99.90
23683;DHT22;24897;53.514;10.482;2022-11-15T00:51:43;6.60;99.90
23683;DHT22;24897;53.514;10.482;2022-11-15T00:54:27;6.90;99.90
23683;DHT22;24897;53.514;10.482;2022-11-15T00:59:56;6.20;99.90
23683;DHT22;24897;53.514;10.482;2022-11-15T01:02:40;6.60;99.90
23683;DHT22;24897;53.514;10.482;2022-11-15T01:05:24;6.60;99.90
23683;DHT22;24897;53.514;10.482;2022-11-15T01:08:15;6.20;99.90
23683;DHT22;24897;53.514;10.482;2022-11-15T01:11:08;6.50;99.90
23683;DHT22;24897;53.514;10.482;2022-11-15T01:13:52;6.70;99.90
23683;DHT22;24897;53.514;10.482;2022-11-15T01:16:38;6.60;99.90
23683;DHT22;24897;53.514;10.482;2022-11-15T01:19:22;5.60;99.90
23683;DHT22;24897;53.514;10.482;2022-11-15T01:22:07;6.50;99.90
23683;DHT22;24897;53.514;10.482;2022-11-15T01:24:51;6.10;99.90
23683;DHT22;24897;53.514;10.482;2022-11-15T01:27:35;5.80;99.90
23683;DHT22;24897;53.514;10.482;2022-11-15T01:30:20;6.80;99.90
23683;DHT22;24897;53.514;10.482;2022-11-15T01:38:33;6.30;99.90
23683;DHT22;24897;53.514;10.482;2022-11-15T01:41:21;5.40;99.90
23683;DHT22;24897;53.514;10.482;2022-11-15T01:47:37;6.90;99.90
23683;DHT22;24897;53.514;10.482;2022-11-15T01:50:27;6.40;99.90
23683;DHT22;24897;53.514;10.482;2022-11-15T01:53:13;5.70;99.90
23683;DHT22;24897;53.514;10.482;2022-11-15T01:55:58;5.80;99.90
23683;DHT22;24897;53.514;10.482;2022-11-15T02:01:31;5.70;99.90
23683;DHT22;24897;53.514;10.482;2022-11-15T02:04:27;5.60;99.90
23683;DHT22;24897;53.514;10.482;2022-11-15T02:07:15;5.70;99.90
23683;DHT22;24897;53.514;10.482;2022-11-15T02:12:54;5.60;99.90
23683;DHT22;24897;53.514;10.482;2022-11-15T02:16:09;5.30;99.90
23683;DHT22;24897;53.514;10.482;2022-11-15T02:18:57;6.70;99.90
23683;DHT22;24897;53.514;10.482;2022-11-15T02:21:56;6.00;99.90
23683;DHT22;24897;53.514;10.482;2022-11-15T02:25:05;5.70;99.90
23683;DHT22;24897;53.514;10.482;2022-11-15T02:28:28;5.50;99.90
23683;DHT22;24897;53.514;10.482;2022-11-15T02:40:23;5.10;99.90
23683;DHT22;24897;53.514;10.482;2022-11-15T02:43:12;5.20;99.90
23683;DHT22;24897;53.514;10.482;2022-11-15T02:49:05;5.10;99.90
23683;DHT22;24897;53.514;10.482;2022-11-15T02:51:51;5.40;99.90
23683;DHT22;24897;53.514;10.482;2022-11-15T02:54:35;5.30;99.90
23683;DHT22;24897;53.514;10.482;2022-11-15T02:57:39;5.70;99.90
23683;DHT22;24897;53.514;10.482;2022-11-15T03:00:28;5.30;99.90
23683;DHT22;24897;53.514;10.482;2022-11-15T03:06:35;5.20;99.90
23683;DHT22;24897;53.514;10.482;2022-11-15T03:09:34;5.30;99.90
23683;DHT22;24897;53.514;10.482;2022-11-15T03:12:41;5.10;99.90
23683;DHT22;24897;53.514;10.482;2022-11-15T03:15:33;4.90;99.90
23683;DHT22;24897;53.514;10.482;2022-11-15T03:18:32;4.90;99.90
23683;DHT22;24897;53.514;10.482;2022-11-15T03:21:18;5.60;99.90
23683;DHT22;24897;53.514;10.482;2022-11-15T03:24:06;5.60;99.90
23683;DHT22;24897;53.514;10.482;2022-11-15T03:26:53;5.20;99.90
23683;DHT22;24897;53.514;10.482;2022-11-15T03:29:43;5.10;99.90
23683;DHT22;24897;53.514;10.482;2022-11-15T03:32:30;5.10;99.90
23683;DHT22;24897;53.514;10.482;2022-11-15T03:35:24;5.40;99.90
23683;DHT22;24897;53.514;10.482;2022-11-15T03:38:19;5.10;99.90
23683;DHT22;24897;53.514;10.482;2022-11-15T03:41:13;5.10;99.90
23683;DHT22;24897;53.514;10.482;2022-11-15T03:47:31;5.50;99.90
23683;DHT22;24897;53.514;10.482;2022-11-15T03:50:18;5.30;99.90
23683;DHT22;24897;53.514;10.482;2022-11-15T03:53:04;5.00;99.90
23683;DHT22;24897;53.514;10.482;2022-11-15T03:55:48;4.90;99.90
23683;DHT22;24897;53.514;10.482;2022-11-15T03:58:32;5.40;99.90
23683;DHT22;24897;53.514;10.482;2022-11-15T04:01:16;5.60;99.90
23683;DHT22;24897;53.514;10.482;2022-11-15T04:04:01;4.60;99.90
23683;DHT22;24897;53.514;10.482;2022-11-15T04:06:45;4.70;99.90
23683;DHT22;24897;53.514;10.482;2022-11-15T04:09:29;5.90;99.90
23683;DHT22;24897;53.514;10.482;2022-11-15T04:12:13;4.90;99.90
23683;DHT22;24897;53.514;10.482;2022-11-15T04:15:20;5.50;99.90
23683;DHT22;24897;53.514;10.482;2022-11-15T04:20:49;4.90;99.90
23683;DHT22;24897;53.514;10.482;2022-11-15T04:23:52;4.90;99.90
23683;DHT22;24897;53.514;10.482;2022-11-15T04:26:51;4.60;99.90
23683;DHT22;24897;53.514;10.482;2022-11-15T04:29:35;5.00;99.90
23683;DHT22;24897;53.514;10.482;2022-11-15T04:32:20;5.20;99.90
23683;DHT22;24897;53.514;10.482;2022-11-15T04:35:04;5.00;99.90
23683;DHT22;24897;53.514;10.482;2022-11-15T04:37:48;5.00;99.90
23683;DHT22;24897;53.514;10.482;2022-11-15T04:40:33;5.00;99.90
23683;DHT22;24897;53.514;10.482;2022-11-15T04:43:17;5.00;99.90
23683;DHT22;24897;53.514;10.482;2022-11-15T04:46:01;5.40;99.90
23683;DHT22;24897;53.514;10.482;2022-11-15T04:48:45;5.50;99.90
23683;DHT22;24897;53.514;10.482;2022-11-15T04:54:14;5.50;99.90
23683;DHT22;24897;53.514;10.482;2022-11-15T04:59:43;5.70;99.90
23683;DHT22;24897;53.514;10.482;2022-11-15T05:02:27;4.90;99.90
23683;DHT22;24897;53.514;10.482;2022-11-15T05:05:31;5.90;99.90
23683;DHT22;24897;53.514;10.482;2022-11-15T05:08:15;6.00;99.90
23683;DHT22;24897;53.514;10.482;2022-11-15T05:10:59;6.10;99.90
23683;DHT22;24897;53.514;10.482;2022-11-15T05:16:28;5.80;99.90
23683;DHT22;24897;53.514;10.482;2022-11-15T05:19:12;5.40;99.90
23683;DHT22;24897;53.514;10.482;2022-11-15T05:21:56;5.70;99.90
23683;DHT22;24897;53.514;10.482;2022-11-15T05:27:25;6.90;99.90
23683;DHT22;24897;53.514;10.482;2022-11-15T05:30:09;7.20;99.90
23683;DHT22;24897;53.514;10.482;2022-11-15T05:32:53;5.60;99.90
23683;DHT22;24897;53.514;10.482;2022-11-15T05:35:43;6.00;99.90
23683;DHT22;24897;53.514;10.482;2022-11-15T05:38:29;5.60;99.90
23683;DHT22;24897;53.514;10.482;2022-11-15T05:41:14;6.10;99.90
23683;DHT22;24897;53.514;10.482;2022-11-15T05:44:00;5.90;99.90
23683;DHT22;24897;53.514;10.482;2022-11-15T05:46:45;6.20;99.90
23683;DHT22;24897;53.514;10.482;2022-11-15T05:49:34;5.50;99.90
23683;DHT22;24897;53.514;10.482;2022-11-15T05:52:23;5.90;99.90
23683;DHT22;24897;53.514;10.482;2022-11-15T05:55:09;5.90;99.90
23683;DHT22;24897;53.514;10.482;2022-11-15T05:57:53;6.10;99.90
23683;DHT22;24897;53.514;10.482;2022-11-15T06:00:38;5.80;99.90
23683;DHT22;24897;53.514;10.482;2022-11-15T06:03:22;5.60;99.90
23683;DHT22;24897;53.514;10.482;2022-11-15T06:06:06;5.50;99.90
23683;DHT22;24897;53.514;10.482;2022-11-15T06:11:35;6.20;99.90
23683;DHT22;24897;53.514;10.482;2022-11-15T06:14:20;5.50;99.90
23683;DHT22;24897;53.514;10.482;2022-11-15T06:17:04;5.70;99.90
23683;DHT22;24897;53.514;10.482;2022-11-15T06:19:49;5.60;99.90
23683;DHT22;24897;53.514;10.482;2022-11-15T06:22:33;5.60;99.90
23683;DHT22;24897;53.514;10.482;2022-11-15T06:25:17;5.70;99.90
23683;DHT22;24897;53.514;10.482;2022-11-15T06:28:01;6.00;99.90
23683;DHT22;24897;53.514;10.482;2022-11-15T06:30:45;6.00;99.90
23683;DHT22;24897;53.514;10.482;2022-11-15T06:33:29;5.40;99.90
23683;DHT22;24897;53.514;10.482;2022-11-15T06:36:13;6.00;99.90
23683;DHT22;24897;53.514;10.482;2022-11-15T06:38:59;5.70;99.90
23683;DHT22;24897;53.514;10.482;2022-11-15T06:41:43;5.70;99.90
23683;DHT22;24897;53.514;10.482;2022-11-15T06:44:27;6.00;99.90
23683;DHT22;24897;53.514;10.482;2022-11-15T06:47:11;6.20;99.90
23683;DHT22;24897;53.514;10.482;2022-11-15T06:52:40;5.80;99.90
23683;DHT22;24897;53.514;10.482;2022-11-15T06:55:24;7.10;99.90
23683;DHT22;24897;53.514;10.482;2022-11-15T06:58:08;6.00;99.90
23683;DHT22;24897;53.514;10.482;2022-11-15T07:00:52;6.20;99.90
23683;DHT22;24897;53.514;10.482;2022-11-15T07:03:38;6.50;99.90
23683;DHT22;24897;53.514;10.482;2022-11-15T07:06:22;6.50;99.90
23683;DHT22;24897;53.514;10.482;2022-11-15T07:09:06;3.20;99.90
23683;DHT22;24897;53.514;10.482;2022-11-15T07:11:50;6.30;99.90
23683;DHT22;24897;53.514;10.482;2022-11-15T07:14:34;7.50;99.90
23683;DHT22;24897;53.514;10.482;2022-11-15T07:17:19;6.20;99.90
23683;DHT22;24897;53.514;10.482;2022-11-15T07:25:32;7.70;99.90
23683;DHT22;24897;53.514;10.482;2022-11-15T07:31:06;6.60;99.90
23683;DHT22;24897;53.514;10.482;2022-11-15T07:33:50;6.80;99.90
23683;DHT22;24897;53.514;10.482;2022-11-15T07:36:35;6.20;99.90
23683;DHT22;24897;53.514;10.482;2022-11-15T07:42:04;6.30;99.90
23683;DHT22;24897;53.514;10.482;2022-11-15T07:45:07;6.50;99.90
23683;DHT22;24897;53.514;10.482;2022-11-15T07:50:40;7.10;99.90
23683;DHT22;24897;53.514;10.482;2022-11-15T07:53:24;6.30;99.90
23683;DHT22;24897;53.514;10.482;2022-11-15T07:58:53;7.10;99.90
23683;DHT22;24897;53.514;10.482;2022-11-15T08:01:37;7.00;99.90
23683;DHT22;24897;53.514;10.482;2022-11-15T08:07:10;6.90;99.90
23683;DHT22;24897;53.514;10.482;2022-11-15T08:09:54;7.10;99.90
23683;DHT22;24897;53.514;10.482;2022-11-15T08:12:39;7.60;99.90
23683;DHT22;24897;53.514;10.482;2022-11-15T08:15:23;7.90;99.90
23683;DHT22;24897;53.514;10.482;2022-11-15T08:18:12;7.10;99.90
23683;DHT22;24897;53.514;10.482;2022-11-15T08:21:01;7.20;99.90
23683;DHT22;24897;53.514;10.482;2022-11-15T08:23:45;7.80;99.90
23683;DHT22;24897;53.514;10.482;2022-11-15T08:26:30;7.70;99.90
23683;DHT22;24897;53.514;10.482;2022-11-15T08:29:14;7.30;99.90
23683;DHT22;24897;53.514;10.482;2022-11-15T08:31:58;8.00;99.90
23683;DHT22;24897;53.514;10.482;2022-11-15T08:37:27;7.70;99.90
23683;DHT22;24897;53.514;10.482;2022-11-15T08:40:12;8.90;99.90
23683;DHT22;24897;53.514;10.482;2022-11-15T08:45:43;8.30;99.90
23683;DHT22;24897;53.514;10.482;2022-11-15T08:48:29;7.80;99.90
23683;DHT22;24897;53.514;10.482;2022-11-15T08:59:27;8.30;99.90
23683;DHT22;24897;53.514;10.482;2022-11-15T09:02:15;7.80;99.90
23683;DHT22;24897;53.514;10.482;2022-11-15T09:07:44;7.90;99.90
23683;DHT22;24897;53.514;10.482;2022-11-15T09:10:28;8.30;99.90
23683;DHT22;24897;53.514;10.482;2022-11-15T09:13:12;9.50;99.90
23683;DHT22;24897;53.514;10.482;2022-11-15T09:15:59;10.00;99.90
23683;DHT22;24897;53.514;10.482;2022-11-15T09:18:43;9.00;99.90
23683;DHT22;24897;53.514;10.482;2022-11-15T09:21:29;9.70;99.90
23683;DHT22;24897;53.514;10.482;2022-11-15T09:24:13;9.70;99.90
23683;DHT22;24897;53.514;10.482;2022-11-15T09:29:43;10.00;99.90
23683;DHT22;24897;53.514;10.482;2022-11-15T09:32:30;10.30;99.90
23683;DHT22;24897;53.514;10.482;2022-11-15T09:37:59;10.50;99.90
23683;DHT22;24897;53.514;10.482;2022-11-15T09:40:43;9.80;99.90
23683;DHT22;24897;53.514;10.482;2022-11-15T09:49:44;10.10;99.90
23683;DHT22;24897;53.514;10.482;2022-11-15T09:52:28;10.70;99.90
23683;DHT22;24897;53.514;10.482;2022-11-15T09:55:14;10.90;99.90
23683;DHT22;24897;53.514;10.482;2022-11-15T09:58:23;11.50;99.90
23683;DHT22;24897;53.514;10.482;2022-11-15T10:01:19;11.50;99.90
23683;DHT22;24897;53.514;10.482;2022-11-15T10:04:08;11.70;99.90
23683;DHT22;24897;53.514;10.482;2022-11-15T10:07:01;12.00;99.90
23683;DHT22;24897;53.514;10.482;2022-11-15T10:10:27;11.70;99.90
23683;DHT22;24897;53.514;10.482;2022-11-15T10:13:23;11.20;99.90
23683;DHT22;24897;53.514;10.482;2022-11-15T10:25:27;10.80;99.90
23683;DHT22;24897;53.514;10.482;2022-11-15T10:28:16;11.50;99.90
23683;DHT22;24897;53.514;10.482;2022-11-15T10:33:46;11.30;99.90
23683;DHT22;24897;53.514;10.482;2022-11-15T10:36:30;12.40;99.90
23683;DHT22;24897;53.514;10.482;2022-11-15T10:39:14;11.20;99.90
23683;DHT22;24897;53.514;10.482;2022-11-15T10:42:17;11.40;99.90
23683;DHT22;24897;53.514;10.482;2022-11-15T10:50:32;10.20;99.90
23683;DHT22;24897;53.514;10.482;2022-11-15T10:53:41;10.80;99.90
23683;DHT22;24897;53.514;10.482;2022-11-15T10:56:27;11.10;99.90
23683;DHT22;24897;53.514;10.482;2022-11-15T10:59:23;11.70;99.90
23683;DHT22;24897;53.514;10.482;2022-11-15T11:02:28;11.20;99.90
23683;DHT22;24897;53.514;10.482;2022-11-15T11:05:32;11.20;99.90
23683;DHT22;24897;53.514;10.482;2022-11-15T11:08:23;11.50;99.90
23683;DHT22;24897;53.514;10.482;2022-11-15T11:13:54;11.30;99.90
23683;DHT22;24897;53.514;10.482;2022-11-15T11:16:47;11.70;99.90
23683;DHT22;24897;53.514;10.482;2022-11-15T11:22:54;11.10;99.90
23683;DHT22;24897;53.514;10.482;2022-11-15T11:26:01;11.40;99.90
23683;DHT22;24897;53.514;10.482;2022-11-15T11:34:50;11.50;99.90
23683;DHT22;24897;53.514;10.482;2022-11-15T11:38:39;11.30;99.90
23683;DHT22;24897;53.514;10.482;2022-11-15T11:41:17;11.20;99.90
23683;DHT22;24897;53.514;10.482;2022-11-15T11:47:38;11.60;99.90
23683;DHT22;24897;53.514;10.482;2022-11-15T11:50:28;11.50;99.90
23683;DHT22;24897;53.514;10.482;2022-11-15T11:53:17;11.70;99.90
23683;DHT22;24897;53.514;10.482;2022-11-15T11:56:21;11.40;99.90
23683;DHT22;24897;53.514;10.482;2022-11-15T11:59:21;11.70;99.90
23683;DHT22;24897;53.514;10.482;2022-11-15T12:02:38;12.20;99.90
23683;DHT22;24897;53.514;10.482;2022-11-15T12:05:29;12.00;99.90
23683;DHT22;24897;53.514;10.482;2022-11-15T12:08:48;12.20;99.90
23683;DHT22;24897;53.514;10.482;2022-11-15T12:17:34;13.10;99.90
23683;DHT22;24897;53.514;10.482;2022-11-15T12:20:23;13.40;99.90
23683;DHT22;24897;53.514;10.482;2022-11-15T12:23:11;13.50;99.90
23683;DHT22;24897;53.514;10.482;2022-11-15T12:26:04;13.40;99.90
23683;DHT22;24897;53.514;10.482;2022-11-15T12:28:55;13.20;99.90
23683;DHT22;24897;53.514;10.482;2022-11-15T12:31:49;13.00;99.90
23683;DHT22;24897;53.514;10.482;2022-11-15T12:34:46;12.90;99.90
23683;DHT22;24897;53.514;10.482;2022-11-15T12:40:27;12.90;99.90
23683;DHT22;24897;53.514;10.482;2022-11-15T12:46:03;12.90;99.90
23683;DHT22;24897;53.514;10.482;2022-11-15T12:48:54;12.80;99.90
23683;DHT22;24897;53.514;10.482;2022-11-15T12:57:32;12.90;99.90
23683;DHT22;24897;53.514;10.482;2022-11-15T13:03:19;12.80;99.90
23683;DHT22;24897;53.514;10.482;2022-11-15T13:06:06;12.90;99.90
23683;DHT22;24897;53.514;10.482;2022-11-15T13:08:50;13.00;99.90
23683;DHT22;24897;53.514;10.482;2022-11-15T13:11:45;13.00;99.90
23683;DHT22;24897;53.514;10.482;2022-11-15T13:20:32;13.00;99.90
23683;DHT22;24897;53.514;10.482;2022-11-15T13:23:17;13.20;99.90
23683;DHT22;24897;53.514;10.482;2022-11-15T13:28:53;13.30;99.90
23683;DHT22;24897;53.514;10.482;2022-11-15T13:31:43;12.80;99.90
23683;DHT22;24897;53.514;10.482;2022-11-15T13:34:33;12.70;99.90
23683;DHT22;24897;53.514;10.482;2022-11-15T13:43:35;12.20;99.90
23683;DHT22;24897;53.514;10.482;2022-11-15T13:49:07;14.60;99.90
23683;DHT22;24897;53.514;10.482;2022-11-15T13:51:53;12.30;99.90
23683;DHT22;24897;53.514;10.482;2022-11-15T13:54:45;12.40;99.90
23683;DHT22;24897;53.514;10.482;2022-11-15T13:57:51;12.50;99.90
23683;DHT22;24897;53.514;10.482;2022-11-15T14:00:37;13.20;99.90
23683;DHT22;24897;53.514;10.482;2022-11-15T14:03:25;13.00;99.90
23683;DHT22;24897;53.514;10.482;2022-11-15T14:06:16;12.50;99.90
23683;DHT22;24897;53.514;10.482;2022-11-15T14:11:56;12.20;99.90
23683;DHT22;24897;53.514;10.482;2022-11-15T14:14:47;12.40;99.90
23683;DHT22;24897;53.514;10.482;2022-11-15T14:23:26;12.50;99.90
23683;DHT22;24897;53.514;10.482;2022-11-15T14:26:29;12.40;99.90
23683;DHT22;24897;53.514;10.482;2022-11-15T14:29:24;12.20;99.90
23683;DHT22;24897;53.514;10.482;2022-11-15T14:32:15;12.90;99.90
23683;DHT22;24897;53.514;10.482;2022-11-15T14:35:01;12.70;99.90
23683;DHT22;24897;53.514;10.482;2022-11-15T14:37:46;12.70;99.90
23683;DHT22;24897;53.514;10.482;2022-11-15T14:40:31;12.20;99.90
23683;DHT22;24897;53.514;10.482;2022-11-15T14:43:16;12.10;99.90
23683;DHT22;24897;53.514;10.482;2022-11-15T14:46:00;12.40;99.90
23683;DHT22;24897;53.514;10.482;2022-11-15T14:48:45;12.30;99.90
23683;DHT22;24897;53.514;10.482;2022-11-15T14:51:29;12.50;99.90
23683;DHT22;24897;53.514;10.482;2022-11-15T14:54:13;12.00;99.90
23683;DHT22;24897;53.514;10.482;2022-11-15T14:59:42;11.60;99.90
23683;DHT22;24897;53.514;10.482;2022-11-15T15:02:27;12.00;99.90
23683;DHT22;24897;53.514;10.482;2022-11-15T15:05:20;12.10;99.90
23683;DHT22;24897;53.514;10.482;2022-11-15T15:08:05;11.90;99.90
23683;DHT22;24897;53.514;10.482;2022-11-15T15:10:50;11.80;99.90
23683;DHT22;24897;53.514;10.482;2022-11-15T15:13:34;11.80;99.90
23683;DHT22;24897;53.514;10.482;2022-11-15T15:16:19;11.80;99.90
23683;DHT22;24897;53.514;10.482;2022-11-15T15:19:03;11.70;99.90
23683;DHT22;24897;53.514;10.482;2022-11-15T15:21:47;11.70;99.90
23683;DHT22;24897;53.514;10.482;2022-11-15T15:24:32;11.60;99.90
23683;DHT22;24897;53.514;10.482;2022-11-15T15:27:16;11.60;99.90
23683;DHT22;24897;53.514;10.482;2022-11-15T15:30:00;11.60;99.90
23683;DHT22;24897;53.514;10.482;2022-11-15T15:32:45;11.80;99.90
23683;DHT22;24897;53.514;10.482;2022-11-15T15:35:31;11.30;99.90
23683;DHT22;24897;53.514;10.482;2022-11-15T15:38:16;11.70;99.90
23683;DHT22;24897;53.514;10.482;2022-11-15T15:41:00;11.50;99.90
23683;DHT22;24897;53.514;10.482;2022-11-15T15:43:46;11.50;99.90
23683;DHT22;24897;53.514;10.482;2022-11-15T15:46:31;11.50;99.90
23683;DHT22;24897;53.514;10.482;2022-11-15T15:49:16;12.30;99.90
23683;DHT22;24897;53.514;10.482;2022-11-15T15:52:00;11.50;99.90
23683;DHT22;24897;53.514;10.482;2022-11-15T15:54:44;11.20;99.90
23683;DHT22;24897;53.514;10.482;2022-11-15T15:57:29;11.90;99.90
23683;DHT22;24897;53.514;10.482;2022-11-15T16:00:13;12.00;99.90
23683;DHT22;24897;53.514;10.482;2022-11-15T16:02:59;12.00;99.90
23683;DHT22;24897;53.514;10.482;2022-11-15T16:05:43;11.40;99.90
23683;DHT22;24897;53.514;10.482;2022-11-15T16:08:27;11.90;99.90
23683;DHT22;24897;53.514;10.482;2022-11-15T16:11:13;11.20;99.90
23683;DHT22;24897;53.514;10.482;2022-11-15T16:13:57;11.30;99.90
23683;DHT22;24897;53.514;10.482;2022-11-15T16:16:41;11.40;99.90
23683;DHT22;24897;53.514;10.482;2022-11-15T16:19:25;11.50;99.90
23683;DHT22;24897;53.514;10.482;2022-11-15T16:22:09;11.60;99.90
23683;DHT22;24897;53.514;10.482;2022-11-15T16:24:56;11.60;99.90
23683;DHT22;24897;53.514;10.482;2022-11-15T16:27:40;11.80;99.90
23683;DHT22;24897;53.514;10.482;2022-11-15T16:30:28;11.60;99.90
23683;DHT22;24897;53.514;10.482;2022-11-15T16:33:12;11.60;99.90
23683;DHT22;24897;53.514;10.482;2022-11-15T16:35:57;11.60;99.90
23683;DHT22;24897;53.514;10.482;2022-11-15T16:38:41;12.10;99.90
23683;DHT22;24897;53.514;10.482;2022-11-15T16:41:26;11.90;99.90
23683;DHT22;24897;53.514;10.482;2022-11-15T16:44:10;11.70;99.90
23683;DHT22;24897;53.514;10.482;2022-11-15T16:46:54;11.80;99.90
23683;DHT22;24897;53.514;10.482;2022-11-15T16:49:42;11.80;99.90
23683;DHT22;24897;53.514;10.482;2022-11-15T16:52:27;11.80;99.90
23683;DHT22;24897;53.514;10.482;2022-11-15T16:55:11;11.80;99.90
23683;DHT22;24897;53.514;10.482;2022-11-15T16:57:55;11.90;99.90
23683;DHT22;24897;53.514;10.482;2022-11-15T17:00:41;11.90;99.90
23683;DHT22;24897;53.514;10.482;2022-11-15T17:03:25;11.90;99.90
23683;DHT22;24897;53.514;10.482;2022-11-15T17:06:09;11.80;99.90
23683;DHT22;24897;53.514;10.482;2022-11-15T17:08:54;12.00;99.90
23683;DHT22;24897;53.514;10.482;2022-11-15T17:11:40;12.00;99.90
23683;DHT22;24897;53.514;10.482;2022-11-15T17:14:24;12.10;99.90
23683;DHT22;24897;53.514;10.482;2022-11-15T17:17:09;12.00;99.90
23683;DHT22;24897;53.514;10.482;2022-11-15T17:19:53;12.10;99.90
23683;DHT22;24897;53.514;10.482;2022-11-15T17:22:37;12.00;99.90
23683;DHT22;24897;53.514;10.482;2022-11-15T17:25:21;12.10;99.90
23683;DHT22;24897;53.514;10.482;2022-11-15T17:28:06;12.00;99.90
23683;DHT22;24897;53.514;10.482;2022-11-15T17:30:50;12.00;99.90
23683;DHT22;24897;53.514;10.482;2022-11-15T17:33:35;12.00;99.90
23683;DHT22;24897;53.514;10.482;2022-11-15T17:36:20;12.00;99.90
23683;DHT22;24897;53.514;10.482;2022-11-15T17:39:04;11.90;99.90
23683;DHT22;24897;53.514;10.482;2022-11-15T17:41:48;11.90;99.90
23683;DHT22;24897;53.514;10.482;2022-11-15T17:44:33;11.90;99.90
23683;DHT22;24897;53.514;10.482;2022-11-15T17:47:17;11.80;99.90
23683;DHT22;24897;53.514;10.482;2022-11-15T17:50:01;12.00;99.90
23683;DHT22;24897;53.514;10.482;2022-11-15T17:55:31;12.40;99.90
23683;DHT22;24897;53.514;10.482;2022-11-15T17:58:16;11.50;99.90
23683;DHT22;24897;53.514;10.482;2022-11-15T18:04:08;10.90;99.90
23683;DHT22;24897;53.514;10.482;2022-11-15T18:06:54;11.60;99.90
23683;DHT22;24897;53.514;10.482;2022-11-15T18:15:11;11.50;99.90
23683;DHT22;24897;53.514;10.482;2022-11-15T18:20:40;11.70;99.90
23683;DHT22;24897;53.514;10.482;2022-11-15T18:26:10;11.90;99.90
23683;DHT22;24897;53.514;10.482;2022-11-15T18:29:03;12.30;99.90
23683;DHT22;24897;53.514;10.482;2022-11-15T18:31:48;10.80;99.90
23683;DHT22;24897;53.514;10.482;2022-11-15T18:34:33;12.60;99.90
23683;DHT22;24897;53.514;10.482;2022-11-15T18:37:18;11.70;99.90
23683;DHT22;24897;53.514;10.482;2022-11-15T18:40:03;11.90;99.90
23683;DHT22;24897;53.514;10.482;2022-11-15T18:42:47;11.90;99.90
23683;DHT22;24897;53.514;10.482;2022-11-15T18:45:34;11.60;99.90
23683;DHT22;24897;53.514;10.482;2022-11-15T18:51:14;11.90;99.90
23683;DHT22;24897;53.514;10.482;2022-11-15T18:54:00;11.20;99.90
23683;DHT22;24897;53.514;10.482;2022-11-15T19:04:59;11.80;99.90
23683;DHT22;24897;53.514;10.482;2022-11-15T19:07:47;11.60;99.90
23683;DHT22;24897;53.514;10.482;2022-11-15T19:10:33;11.60;99.90
23683;DHT22;24897;53.514;10.482;2022-11-15T19:13:17;11.80;99.90
23683;DHT22;24897;53.514;10.482;2022-11-15T19:16:03;11.80;99.90
23683;DHT22;24897;53.514;10.482;2022-11-15T19:18:54;12.00;99.90
23683;DHT22;24897;53.514;10.482;2022-11-15T19:21:40;11.20;99.90
23683;DHT22;24897;53.514;10.482;2022-11-15T19:24:24;10.80;99.90
23683;DHT22;24897;53.514;10.482;2022-11-15T19:29:54;11.70;99.90
23683;DHT22;24897;53.514;10.482;2022-11-15T19:32:39;11.60;99.90
23683;DHT22;24897;53.514;10.482;2022-11-15T19:40:59;11.30;99.90
23683;DHT22;24897;53.514;10.482;2022-11-15T19:46:30;11.70;99.90
23683;DHT22;24897;53.514;10.482;2022-11-15T19:49:15;11.50;99.90
23683;DHT22;24897;53.514;10.482;2022-11-15T19:57:28;11.60;99.90
23683;DHT22;24897;53.514;10.482;2022-11-15T20:00:12;10.60;99.90
23683;DHT22;24897;53.514;10.482;2022-11-15T20:02:56;11.10;99.90
23683;DHT22;24897;53.514;10.482;2022-11-15T20:05:40;11.20;99.90
23683;DHT22;24897;53.514;10.482;2022-11-15T20:08:25;11.40;99.90
23683;DHT22;24897;53.514;10.482;2022-11-15T20:11:10;11.30;99.90
23683;DHT22;24897;53.514;10.482;2022-11-15T20:13:56;11.60;99.90
23683;DHT22;24897;53.514;10.482;2022-11-15T20:16:41;11.50;99.90
23683;DHT22;24897;53.514;10.482;2022-11-15T20:19:26;11.50;99.90
23683;DHT22;24897;53.514;10.482;2022-11-15T20:22:10;11.70;99.90
23683;DHT22;24897;53.514;10.482;2022-11-15T20:27:39;11.50;99.90
23683;DHT22;24897;53.514;10.482;2022-11-15T20:33:08;11.20;99.90
23683;DHT22;24897;53.514;10.482;2022-11-15T20:38:37;11.30;99.90
23683;DHT22;24897;53.514;10.482;2022-11-15T20:41:22;11.30;99.90
23683;DHT22;24897;53.514;10.482;2022-11-15T20:44:06;11.40;99.90
23683;DHT22;24897;53.514;10.482;2022-11-15T20:46:50;10.80;99.90
23683;DHT22;24897;53.514;10.482;2022-11-15T20:49:35;11.30;99.90
23683;DHT22;24897;53.514;10.482;2022-11-15T20:52:19;11.20;99.90
23683;DHT22;24897;53.514;10.482;2022-11-15T20:55:03;10.90;99.90
23683;DHT22;24897;53.514;10.482;2022-11-15T20:57:47;11.00;99.90
23683;DHT22;24897;53.514;10.482;2022-11-15T21:03:17;10.80;99.90
23683;DHT22;24897;53.514;10.482;2022-11-15T21:06:01;10.80;99.90
23683;DHT22;24897;53.514;10.482;2022-11-15T21:08:50;12.30;99.90
23683;DHT22;24897;53.514;10.482;2022-11-15T21:11:53;10.90;99.90
23683;DHT22;24897;53.514;10.482;2022-11-15T21:14:55;10.90;99.90
23683;DHT22;24897;53.514;10.482;2022-11-15T21:17:39;11.20;99.90
23683;DHT22;24897;53.514;10.482;2022-11-15T21:20:23;11.10;99.90
23683;DHT22;24897;53.514;10.482;2022-11-15T21:23:09;11.80;99.90
23683;DHT22;24897;53.514;10.482;2022-11-15T21:25:54;10.50;99.90
23683;DHT22;24897;53.514;10.482;2022-11-15T21:28:38;10.90;99.90
23683;DHT22;24897;53.514;10.482;2022-11-15T21:31:23;10.70;99.90
23683;DHT22;24897;53.514;10.482;2022-11-15T21:34:07;9.80;99.90